createdAt,value
2022-07-28T00:02:06.218Z,0.50
2022-07-28T00:04:36.288Z,0.40
2022-07-28T00:07:05.788Z,0.40
2022-07-28T00:09:35.296Z,0.40
2022-07-28T00:12:05.010Z,0.60
2022-07-28T00:14:34.736Z,0.30
2022-07-28T00:17:04.872Z,0.40
2022-07-28T00:19:34.428Z,0.40
2022-07-28T00:22:04.073Z,0.40
2022-07-28T00:24:33.773Z,0.50
2022-07-28T00:27:03.312Z,0.40
2022-07-28T00:29:49.864Z,0.60
2022-07-28T00:32:05.258Z,0.60
2022-07-28T00:34:35.133Z,0.60
2022-07-28T00:37:06.829Z,0.60
2022-07-28T00:39:36.388Z,0.60
2022-07-28T00:42:06.021Z,0.70
2022-07-28T00:44:35.663Z,0.40
2022-07-28T00:47:05.204Z,0.50
2022-07-28T00:49:34.894Z,0.60
2022-07-28T00:52:06.208Z,0.40
2022-07-28T00:54:37.007Z,0.60
2022-07-28T00:57:06.576Z,0.60
2022-07-28T00:59:36.066Z,0.60
2022-07-28T01:02:06.203Z,0.40
2022-07-28T01:04:36.203Z,0.50
2022-07-28T01:07:38.468Z,0.40
2022-07-28T01:10:15.290Z,0.50
2022-07-28T01:13:14.166Z,0.67
2022-07-28T01:15:51.286Z,0.43
2022-07-28T01:18:25.707Z,0.63
2022-07-28T01:21:02.560Z,0.60
2022-07-28T01:23:42.908Z,0.70
2022-07-28T01:26:38.302Z,0.50
2022-07-28T01:29:36.951Z,0.43
2022-07-28T01:32:20.587Z,0.40
2022-07-28T01:35:04.124Z,0.60
2022-07-28T01:37:37.889Z,0.50
2022-07-28T01:40:10.948Z,0.70
2022-07-28T01:42:45.056Z,0.60
2022-07-28T01:45:17.650Z,0.60
2022-07-28T01:47:50.178Z,0.30
2022-07-28T01:50:25.648Z,0.40
2022-07-28T01:52:58.964Z,0.30
2022-07-28T01:55:31.761Z,0.40
2022-07-28T01:58:04.044Z,0.43
2022-07-28T02:00:35.148Z,0.47
2022-07-28T02:03:07.638Z,0.40
2022-07-28T02:05:40.613Z,0.50
2022-07-28T02:08:12.484Z,0.40
2022-07-28T02:10:46.795Z,0.40
2022-07-28T02:13:16.367Z,0.50
2022-07-28T02:15:46.415Z,0.67
2022-07-28T02:18:16.233Z,0.43
2022-07-28T02:20:46.060Z,0.50
2022-07-28T02:23:16.672Z,0.43
2022-07-28T02:25:47.172Z,0.60
2022-07-28T02:28:20.035Z,0.40
2022-07-28T02:31:02.781Z,0.40
2022-07-28T02:33:59.943Z,0.60
2022-07-28T02:36:17.992Z,0.50
2022-07-28T02:38:50.888Z,0.40
2022-07-28T02:41:25.797Z,0.60
2022-07-28T02:43:59.409Z,0.50
2022-07-28T02:46:43.156Z,0.40
2022-07-28T02:49:31.975Z,0.40
2022-07-28T02:52:04.595Z,0.60
2022-07-28T02:54:37.122Z,0.73
2022-07-28T02:57:08.931Z,0.40
2022-07-28T02:59:39.388Z,0.57
2022-07-28T03:02:10.798Z,0.40
2022-07-28T03:04:58.897Z,0.40
2022-07-28T03:07:31.535Z,0.43
2022-07-28T03:10:01.481Z,0.30
2022-07-28T03:12:31.424Z,0.50
2022-07-28T03:15:00.993Z,0.37
2022-07-28T03:17:30.505Z,0.37
2022-07-28T03:20:01.262Z,0.40
2022-07-28T03:22:30.764Z,0.40
2022-07-28T03:25:03.650Z,0.70
2022-07-28T03:27:39.793Z,0.30
2022-07-28T03:30:16.520Z,0.60
2022-07-28T03:32:53.494Z,0.60
2022-07-28T03:35:24.205Z,0.57
2022-07-28T03:38:13.527Z,0.50
2022-07-28T03:40:46.090Z,0.43
2022-07-28T03:43:20.028Z,0.50
2022-07-28T03:45:50.443Z,0.30
2022-07-28T03:48:21.717Z,0.60
2022-07-28T03:50:51.202Z,0.60
2022-07-28T03:53:24.760Z,0.70
2022-07-28T03:55:54.810Z,0.53
2022-07-28T03:58:28.984Z,0.50
2022-07-28T04:00:59.477Z,0.50
2022-07-28T04:03:43.210Z,0.57
2022-07-28T04:06:01.923Z,0.80
2022-07-28T04:08:31.423Z,0.40
2022-07-28T04:11:00.897Z,0.50
2022-07-28T04:13:32.291Z,0.50
2022-07-28T04:16:02.200Z,0.60
2022-07-28T04:18:31.693Z,0.50
2022-07-28T04:21:01.493Z,0.60
2022-07-28T04:23:31.072Z,0.63
2022-07-28T04:26:00.719Z,0.77
2022-07-28T04:28:30.217Z,0.30
2022-07-28T04:30:59.803Z,0.50
2022-07-28T04:33:30.545Z,0.70
2022-07-28T04:36:01.697Z,0.70
2022-07-28T04:38:31.194Z,0.60
2022-07-28T04:41:00.747Z,0.50
2022-07-28T04:43:30.233Z,0.50
2022-07-28T04:45:59.807Z,0.53
2022-07-28T04:48:29.287Z,0.60
2022-07-28T04:50:58.774Z,0.50
2022-07-28T04:53:29.333Z,0.70
2022-07-28T04:55:58.823Z,0.60
2022-07-28T04:58:28.317Z,0.60
2022-07-28T05:00:59.651Z,0.53
2022-07-28T05:03:34.087Z,0.30
2022-07-28T05:06:00.437Z,0.47
2022-07-28T05:08:29.934Z,0.83
2022-07-28T05:10:59.616Z,0.80
2022-07-28T05:13:33.709Z,0.40
2022-07-28T05:16:00.391Z,0.57
2022-07-28T05:18:30.330Z,0.60
2022-07-28T05:21:00.089Z,0.60
2022-07-28T05:23:29.581Z,0.60
2022-07-28T05:25:59.071Z,0.50
2022-07-28T05:28:28.638Z,0.40
2022-07-28T05:30:58.148Z,0.63
2022-07-28T05:33:31.171Z,0.37
2022-07-28T05:35:59.317Z,0.50
2022-07-28T05:38:30.488Z,0.80
2022-07-28T05:41:01.586Z,0.90
2022-07-28T05:43:31.080Z,0.90
2022-07-28T05:46:00.865Z,0.80
2022-07-28T05:48:30.333Z,1.00
2022-07-28T05:50:59.826Z,1.00
2022-07-28T05:53:29.317Z,0.80
2022-07-28T05:56:01.289Z,0.90
2022-07-28T05:58:31.414Z,1.00
2022-07-28T06:01:03.261Z,0.80
2022-07-28T06:03:41.407Z,0.60
2022-07-28T06:06:15.931Z,0.60
2022-07-28T06:08:37.600Z,0.80
2022-07-28T06:11:11.291Z,0.70
2022-07-28T06:13:41.436Z,0.87
2022-07-28T06:16:13.294Z,0.80
2022-07-28T06:18:44.028Z,0.70
2022-07-28T06:21:14.216Z,0.77
2022-07-28T06:23:43.798Z,0.83
2022-07-28T06:26:13.278Z,0.60
2022-07-28T06:28:42.793Z,0.80
2022-07-28T06:31:12.481Z,0.80
2022-07-28T06:33:41.961Z,0.83
2022-07-28T06:36:11.484Z,0.63
2022-07-28T06:38:40.952Z,0.47
2022-07-28T06:41:10.459Z,0.70
2022-07-28T06:43:39.950Z,0.67
2022-07-28T06:46:09.813Z,0.80
2022-07-28T06:48:39.508Z,0.50
2022-07-28T06:51:09.732Z,1.00
2022-07-28T06:53:39.288Z,0.80
2022-07-28T06:56:08.777Z,0.60
2022-07-28T06:58:40.156Z,0.70
2022-07-28T07:01:09.991Z,0.67
2022-07-28T07:03:39.481Z,0.83
2022-07-28T07:06:10.934Z,0.83
2022-07-28T07:08:40.797Z,0.70
2022-07-28T07:11:11.804Z,0.90
2022-07-28T07:13:41.357Z,0.60
2022-07-28T07:16:10.908Z,0.90
2022-07-28T07:18:40.417Z,0.73
2022-07-28T07:21:09.904Z,0.80
2022-07-28T07:23:39.391Z,0.80
2022-07-28T07:26:08.872Z,0.70
2022-07-28T07:28:38.946Z,0.60
2022-07-28T07:31:08.488Z,0.70
2022-07-28T07:33:38.010Z,0.70
2022-07-28T07:36:07.726Z,0.50
2022-07-28T07:38:38.498Z,0.87
2022-07-28T07:41:08.150Z,0.60
2022-07-28T07:43:37.712Z,0.53
2022-07-28T07:46:08.836Z,0.83
2022-07-28T07:48:38.441Z,0.70
2022-07-28T07:51:15.055Z,0.80
2022-07-28T07:53:39.877Z,0.43
2022-07-28T07:56:09.365Z,0.50
2022-07-28T07:58:38.864Z,1.10
2022-07-28T08:01:08.348Z,0.83
2022-07-28T08:03:37.856Z,0.80
2022-07-28T08:06:07.332Z,0.73
2022-07-28T08:08:43.711Z,0.60
2022-07-28T08:11:10.961Z,0.70
2022-07-28T08:13:40.619Z,0.77
2022-07-28T08:16:10.308Z,1.10
2022-07-28T08:18:39.813Z,1.50
2022-07-28T08:21:09.300Z,1.00
2022-07-28T08:23:38.802Z,1.67
2022-07-28T08:26:08.354Z,1.43
2022-07-28T08:28:37.860Z,1.07
2022-07-28T08:31:07.408Z,0.80
2022-07-28T08:33:53.909Z,0.73
2022-07-28T08:36:08.305Z,0.57
2022-07-28T08:38:37.793Z,0.60
2022-07-28T08:41:12.062Z,0.77
2022-07-28T08:43:43.641Z,0.70
2022-07-28T08:46:15.190Z,0.60
2022-07-28T08:48:45.946Z,0.50
2022-07-28T08:51:16.020Z,0.50
2022-07-28T08:53:46.259Z,0.50
2022-07-28T08:56:21.255Z,1.03
2022-07-28T08:58:50.917Z,0.67
2022-07-28T09:01:20.772Z,0.50
2022-07-28T09:03:51.832Z,0.60
2022-07-28T09:06:23.734Z,0.70
2022-07-28T09:08:53.371Z,0.67
2022-07-28T09:11:22.871Z,0.90
2022-07-28T09:13:54.226Z,0.50
2022-07-28T09:16:24.865Z,0.73
2022-07-28T09:18:54.380Z,0.70
2022-07-28T09:21:24.305Z,0.60
2022-07-28T09:23:54.278Z,0.77
2022-07-28T09:26:23.760Z,0.70
2022-07-28T09:28:59.477Z,0.70
2022-07-28T09:31:30.724Z,0.60
2022-07-28T09:34:04.459Z,0.50
2022-07-28T09:36:42.129Z,0.40
2022-07-28T09:39:11.781Z,0.60
2022-07-28T09:41:55.981Z,0.70
2022-07-28T09:44:27.718Z,0.63
2022-07-28T09:46:58.190Z,0.50
2022-07-28T09:49:44.879Z,0.63
2022-07-28T09:52:14.393Z,0.60
2022-07-28T09:55:09.720Z,0.60
2022-07-28T09:57:45.997Z,0.40
2022-07-28T10:00:15.698Z,0.50
2022-07-28T10:02:50.070Z,0.50
2022-07-28T10:05:19.948Z,0.50
2022-07-28T10:07:52.624Z,0.50
2022-07-28T10:10:25.067Z,0.83
2022-07-28T10:12:59.171Z,0.47
2022-07-28T10:15:50.689Z,0.60
2022-07-28T10:18:17.938Z,0.70
2022-07-28T10:20:49.655Z,0.50
2022-07-28T10:23:20.623Z,0.50
2022-07-28T10:25:52.482Z,0.60
2022-07-28T10:28:24.058Z,0.60
2022-07-28T10:30:58.366Z,0.63
2022-07-28T10:33:31.736Z,0.70
2022-07-28T10:36:03.328Z,0.77
2022-07-28T10:38:38.231Z,0.60
2022-07-28T10:41:12.172Z,0.43
2022-07-28T10:43:43.072Z,0.50
2022-07-28T10:46:16.870Z,0.50
2022-07-28T10:48:46.789Z,0.90
2022-07-28T10:51:16.509Z,0.60
2022-07-28T10:53:56.596Z,0.30
2022-07-28T10:56:53.763Z,0.37
2022-07-28T10:59:48.947Z,0.70
2022-07-28T11:02:59.085Z,0.30
2022-07-28T11:05:40.987Z,0.80
2022-07-28T11:08:18.324Z,0.60
2022-07-28T11:10:51.884Z,0.80
2022-07-28T11:13:30.399Z,0.70
2022-07-28T11:16:22.122Z,0.70
2022-07-28T11:19:36.668Z,0.60
2022-07-28T11:21:43.710Z,0.60
2022-07-28T11:24:18.044Z,0.70
2022-07-28T11:26:46.394Z,0.50
2022-07-28T11:29:17.206Z,0.60
2022-07-28T11:31:51.765Z,0.70
2022-07-28T11:34:24.808Z,0.50
2022-07-28T11:37:15.402Z,0.53
2022-07-28T11:39:44.300Z,0.60
2022-07-28T11:42:33.758Z,0.50
2022-07-28T11:45:37.462Z,0.57
2022-07-28T11:48:22.078Z,0.40
2022-07-28T11:51:13.502Z,0.50
2022-07-28T11:53:50.532Z,0.60
2022-07-28T11:56:33.015Z,0.50
2022-07-28T11:59:28.142Z,0.50
2022-07-28T12:01:57.594Z,0.43
2022-07-28T12:04:28.741Z,0.43
2022-07-28T12:06:58.329Z,0.60
2022-07-28T12:09:41.986Z,0.33
2022-07-28T12:12:07.260Z,0.60
2022-07-28T12:14:43.403Z,0.70
2022-07-28T12:17:14.597Z,0.93
2022-07-28T12:19:44.887Z,0.40
2022-07-28T12:22:15.845Z,0.40
2022-07-28T12:24:46.429Z,0.50
2022-07-28T12:27:17.060Z,0.53
2022-07-28T12:30:22.317Z,0.70
2022-07-28T12:32:52.431Z,0.60
2022-07-28T12:35:24.827Z,0.47
2022-07-28T12:37:54.400Z,0.43
2022-07-28T12:40:27.423Z,0.40
2022-07-28T12:42:55.421Z,0.60
2022-07-28T12:47:54.799Z,0.40
2022-07-28T12:50:24.359Z,0.60
2022-07-28T12:53:09.864Z,0.30
2022-07-28T12:55:43.402Z,0.40
2022-07-28T12:58:28.840Z,0.40
2022-07-28T13:00:58.576Z,0.77
2022-07-28T13:03:30.306Z,0.70
2022-07-28T13:06:02.902Z,0.70
2022-07-28T13:08:49.075Z,0.60
2022-07-28T13:13:56.782Z,0.60
2022-07-28T13:16:29.226Z,0.70
2022-07-28T13:19:04.371Z,0.33
2022-07-28T13:21:56.167Z,0.40
2022-07-28T13:24:19.787Z,0.50
2022-07-28T13:26:49.747Z,0.40
2022-07-28T13:29:19.893Z,0.40
2022-07-28T13:31:49.724Z,0.33
2022-07-28T13:34:19.388Z,0.40
2022-07-28T13:36:49.001Z,0.50
2022-07-28T13:39:18.508Z,0.60
2022-07-28T13:41:58.386Z,0.47
2022-07-28T13:44:19.217Z,0.40
2022-07-28T13:46:50.155Z,0.60
2022-07-28T13:49:21.340Z,0.40
2022-07-28T13:51:51.932Z,0.40
2022-07-28T13:54:23.146Z,0.50
2022-07-28T13:56:54.122Z,0.40
2022-07-28T13:59:26.302Z,0.50
2022-07-28T14:01:56.123Z,0.60
2022-07-28T14:04:26.596Z,0.53
2022-07-28T14:06:56.261Z,0.67
2022-07-28T14:09:25.779Z,0.60
2022-07-28T14:11:55.629Z,0.33
2022-07-28T14:14:25.809Z,0.47
2022-07-28T14:16:56.169Z,0.60
2022-07-28T14:19:38.705Z,0.50
2022-07-28T14:22:00.595Z,0.50
2022-07-28T14:24:30.252Z,0.50
2022-07-28T14:26:59.822Z,0.50
2022-07-28T14:29:29.472Z,0.50
2022-07-28T14:31:59.412Z,0.30
2022-07-28T14:34:28.997Z,0.60
2022-07-28T14:36:58.474Z,0.50
2022-07-28T14:39:29.695Z,0.40
2022-07-28T14:41:59.251Z,0.30
2022-07-28T14:44:28.752Z,0.43
2022-07-28T14:46:58.387Z,0.30
2022-07-28T14:49:28.356Z,0.63
2022-07-28T14:51:59.513Z,0.80
2022-07-28T14:54:29.061Z,0.60
2022-07-28T14:56:58.542Z,0.80
2022-07-28T14:59:28.054Z,0.47
2022-07-28T15:01:57.839Z,0.60
2022-07-28T15:04:27.392Z,0.70
2022-07-28T15:06:56.878Z,0.80
2022-07-28T15:09:26.557Z,0.40
2022-07-28T15:11:56.112Z,0.40
2022-07-28T15:14:25.617Z,0.50
2022-07-28T15:16:55.103Z,0.40
2022-07-28T15:19:24.604Z,0.50
2022-07-28T15:21:54.093Z,0.33
2022-07-28T15:24:25.248Z,0.40
2022-07-28T15:26:54.730Z,0.30
2022-07-28T15:29:24.293Z,0.40
2022-07-28T15:31:56.081Z,0.50
2022-07-28T15:34:26.077Z,0.47
2022-07-28T15:36:56.130Z,0.40
2022-07-28T15:39:25.629Z,0.77
2022-07-28T15:41:56.859Z,0.40
2022-07-28T15:44:26.661Z,0.40
2022-07-28T15:46:56.318Z,0.40
2022-07-28T15:49:27.642Z,0.37
2022-07-28T15:51:57.932Z,0.40
2022-07-28T15:54:27.556Z,0.40
2022-07-28T15:56:57.052Z,0.50
2022-07-28T15:59:48.589Z,0.20
2022-07-28T16:01:58.657Z,0.40
2022-07-28T16:04:28.195Z,0.30
2022-07-28T16:07:15.495Z,0.33
2022-07-28T16:09:46.041Z,0.50
2022-07-28T16:12:16.633Z,0.40
2022-07-28T16:14:46.142Z,0.30
2022-07-28T16:17:15.824Z,0.50
2022-07-28T16:19:50.313Z,0.30
2022-07-28T16:22:16.539Z,0.30
2022-07-28T16:24:46.297Z,0.30
2022-07-28T16:27:15.831Z,0.43
2022-07-28T16:29:46.321Z,0.70
2022-07-28T16:32:16.648Z,0.70
2022-07-28T16:34:47.919Z,0.50
2022-07-28T16:37:19.601Z,0.60
2022-07-28T16:39:49.479Z,0.40
2022-07-28T16:42:18.990Z,0.50
2022-07-28T16:44:48.868Z,0.53
2022-07-28T16:47:18.726Z,0.53
2022-07-28T16:49:48.321Z,0.40
2022-07-28T16:52:17.888Z,0.67
2022-07-28T16:54:47.661Z,0.40
2022-07-28T16:57:17.374Z,0.40
2022-07-28T16:59:48.441Z,0.50
2022-07-28T17:02:19.685Z,0.30
2022-07-28T17:04:49.649Z,0.30
2022-07-28T17:07:19.240Z,0.53
2022-07-28T17:09:48.743Z,0.40
2022-07-28T17:12:18.251Z,0.57
2022-07-28T17:14:47.824Z,0.30
2022-07-28T17:17:17.312Z,0.40
2022-07-28T17:19:47.900Z,0.50
2022-07-28T17:22:17.659Z,0.30
2022-07-28T17:24:48.372Z,0.40
2022-07-28T17:27:48.450Z,0.30
2022-07-28T17:29:49.919Z,0.30
2022-07-28T17:32:19.637Z,0.53
2022-07-28T17:34:49.183Z,0.40
2022-07-28T17:37:18.669Z,0.37
2022-07-28T17:39:48.176Z,0.30
2022-07-28T17:42:17.653Z,0.40
2022-07-28T17:44:47.525Z,0.20
2022-07-28T17:47:17.077Z,0.40
2022-07-28T17:49:47.055Z,0.40
2022-07-28T17:52:16.537Z,0.47
2022-07-28T17:55:04.406Z,0.47
2022-07-28T17:57:37.894Z,0.40
2022-07-28T18:00:07.949Z,0.30
2022-07-28T18:02:38.050Z,0.40
2022-07-28T18:05:10.002Z,0.50
2022-07-28T18:07:50.141Z,0.37
2022-07-28T18:10:11.877Z,0.40
2022-07-28T18:12:41.357Z,0.30
2022-07-28T18:15:11.234Z,0.43
2022-07-28T18:17:55.219Z,0.30
2022-07-28T18:20:12.726Z,0.27
2022-07-28T18:22:42.217Z,0.30
2022-07-28T18:25:11.811Z,0.30
2022-07-28T18:27:41.365Z,0.20
2022-07-28T18:30:12.435Z,0.30
2022-07-28T18:32:41.916Z,0.23
2022-07-28T18:35:11.739Z,0.30
2022-07-28T18:37:45.563Z,0.30
2022-07-28T18:40:15.599Z,0.30
2022-07-28T18:42:46.861Z,0.30
2022-07-28T18:45:17.446Z,0.30
2022-07-28T18:47:48.207Z,0.40
2022-07-28T18:50:27.871Z,0.37
2022-07-28T18:52:49.324Z,0.30
2022-07-28T18:55:20.607Z,0.40
2022-07-28T18:57:50.091Z,0.30
2022-07-28T19:00:19.597Z,0.40
2022-07-28T19:02:49.178Z,0.40
2022-07-28T19:05:18.737Z,0.40
2022-07-28T19:07:48.226Z,0.40
2022-07-28T19:10:17.742Z,0.33
2022-07-28T19:12:48.127Z,0.30
2022-07-28T19:15:17.639Z,0.30
2022-07-28T19:17:47.162Z,0.40
2022-07-28T19:20:19.133Z,0.40
2022-07-28T19:22:48.613Z,0.30
2022-07-28T19:25:18.120Z,0.20
2022-07-28T19:27:48.588Z,0.43
2022-07-28T19:30:18.197Z,0.40
2022-07-28T19:32:47.692Z,0.23
2022-07-28T19:35:17.327Z,0.20
2022-07-28T19:37:47.200Z,0.40
2022-07-28T19:40:16.697Z,0.40
2022-07-28T19:42:47.821Z,0.33
2022-07-28T19:45:17.385Z,0.30
2022-07-28T19:47:46.893Z,0.37
2022-07-28T19:50:18.380Z,0.30
2022-07-28T19:52:47.938Z,0.30
2022-07-28T19:55:19.228Z,0.27
2022-07-28T19:57:49.099Z,0.20
2022-07-28T20:00:19.135Z,0.30
2022-07-28T20:02:48.895Z,0.20
2022-07-28T20:05:18.864Z,0.30
2022-07-28T20:07:48.532Z,0.27
2022-07-28T20:10:18.253Z,0.30
2022-07-28T20:12:48.367Z,0.30
2022-07-28T20:15:17.993Z,0.30
2022-07-28T20:17:47.560Z,0.20
2022-07-28T20:20:17.819Z,0.20
2022-07-28T20:22:47.732Z,0.40
2022-07-28T20:25:17.501Z,0.43
2022-07-28T20:27:47.007Z,0.40
2022-07-28T20:30:16.582Z,0.30
2022-07-28T20:32:46.827Z,0.30
2022-07-28T20:35:16.326Z,0.37
2022-07-28T20:37:46.194Z,0.30
2022-07-28T20:40:15.689Z,0.40
2022-07-28T20:42:47.568Z,0.20
2022-07-28T20:45:16.716Z,0.30
2022-07-28T20:47:46.191Z,0.30
2022-07-28T20:50:15.759Z,0.20
2022-07-28T20:52:45.318Z,0.40
2022-07-28T20:55:14.819Z,0.30
2022-07-28T20:57:53.816Z,0.30
2022-07-28T21:00:16.047Z,0.30
2022-07-28T21:02:45.628Z,0.40
2022-07-28T21:05:25.699Z,0.20
2022-07-28T21:07:59.863Z,0.40
2022-07-28T21:10:17.974Z,0.20
2022-07-28T21:12:47.850Z,0.30
2022-07-28T21:15:17.337Z,0.30
2022-07-28T21:17:46.824Z,0.30
2022-07-28T21:20:16.591Z,0.40
2022-07-28T21:22:46.084Z,0.20
2022-07-28T21:25:15.649Z,0.30
2022-07-28T21:28:02.961Z,0.30
2022-07-28T21:30:32.454Z,0.30
2022-07-28T21:33:01.997Z,0.30
2022-07-28T21:35:31.508Z,0.30
2022-07-28T21:38:01.188Z,0.33
2022-07-28T21:40:31.241Z,0.20
2022-07-28T21:43:00.719Z,0.27
2022-07-28T21:45:30.365Z,0.30
2022-07-28T21:47:59.849Z,0.40
2022-07-28T21:50:29.352Z,0.60
2022-07-28T21:52:58.885Z,0.40
2022-07-28T21:55:28.450Z,0.40
2022-07-28T21:57:57.933Z,0.40
2022-07-28T22:00:27.509Z,0.47
2022-07-28T22:02:57.014Z,0.40
2022-07-28T22:05:28.314Z,0.40
2022-07-28T22:07:57.856Z,0.40
2022-07-28T22:10:29.234Z,0.33
2022-07-28T22:13:00.183Z,0.47
2022-07-28T22:15:29.661Z,0.37
2022-07-28T22:17:59.140Z,0.43
2022-07-28T22:20:28.640Z,0.40
2022-07-28T22:22:58.596Z,0.20
2022-07-28T22:25:28.098Z,0.40
2022-07-28T22:27:57.649Z,0.37
2022-07-28T22:30:27.150Z,0.40
2022-07-28T22:32:56.632Z,0.33
2022-07-28T22:35:26.388Z,0.50
2022-07-28T22:37:55.943Z,0.40
2022-07-28T22:40:25.584Z,0.20
2022-07-28T22:42:55.064Z,0.50
2022-07-28T22:45:50.028Z,0.20
2022-07-28T22:47:56.193Z,0.60
2022-07-28T22:50:25.821Z,0.30
2022-07-28T22:52:55.302Z,0.40
2022-07-28T22:55:24.807Z,0.20
2022-07-28T22:57:54.295Z,0.37
2022-07-28T23:00:23.873Z,0.40
2022-07-28T23:02:53.632Z,0.30
2022-07-28T23:05:23.887Z,0.27
2022-07-28T23:07:57.569Z,0.20
2022-07-28T23:10:24.589Z,0.30
2022-07-28T23:12:57.233Z,0.20
2022-07-28T23:15:39.436Z,0.60
2022-07-28T23:17:56.508Z,0.53
2022-07-28T23:20:26.066Z,0.30
2022-07-28T23:22:56.186Z,0.30
2022-07-28T23:25:25.762Z,0.50
2022-07-28T23:27:55.317Z,0.23
2022-07-28T23:30:24.820Z,0.40
2022-07-28T23:32:54.675Z,0.40
2022-07-28T23:35:24.250Z,0.40
2022-07-28T23:37:53.802Z,0.40
2022-07-28T23:40:23.815Z,0.40
2022-07-28T23:42:53.308Z,0.40
2022-07-28T23:45:22.877Z,0.50
2022-07-28T23:47:58.139Z,0.50
2022-07-28T23:50:23.724Z,0.30
2022-07-28T23:52:53.285Z,0.50
2022-07-28T23:55:22.920Z,0.50
2022-07-28T23:57:52.423Z,0.43
